createdAt,value
2022-12-25T00:30:26.346Z,4.7
2022-12-25T01:00:28.221Z,5.1
2022-12-25T01:10:28.923Z,5.3
2022-12-25T01:30:29.786Z,5.6
2022-12-25T01:40:30.357Z,5.7
2022-12-25T01:50:30.581Z,5.8
2022-12-25T02:00:30.899Z,5.9
2022-12-25T02:10:31.798Z,6
2022-12-25T02:20:32.046Z,6.1
2022-12-25T02:30:32.252Z,6.2
2022-12-25T02:40:32.806Z,6.3
2022-12-25T02:50:33.125Z,6.4
2022-12-25T03:00:33.428Z,6.5
2022-12-25T03:10:34.190Z,6.7
2022-12-25T03:30:36.034Z,7.3
2022-12-25T03:40:36.671Z,7.6
2022-12-25T03:50:37.138Z,8.1
2022-12-25T04:00:37.279Z,8.1
2022-12-25T04:30:39.760Z,8.3
2022-12-25T04:40:39.868Z,8.3
2022-12-25T05:00:41.217Z,8.2
2022-12-25T05:20:41.753Z,7.6
2022-12-25T05:30:42.523Z,7.1
2022-12-25T05:40:42.634Z,6.9
2022-12-25T05:50:43.024Z,6.7
2022-12-25T06:00:43.557Z,6.5
2022-12-25T06:10:44.329Z,6.3
2022-12-25T06:20:44.487Z,6.3
2022-12-25T06:40:44.743Z,6.6
2022-12-25T07:00:45.861Z,6.4
2022-12-25T07:10:46.588Z,6.5
2022-12-25T07:20:47.439Z,6.5
2022-12-25T07:30:47.733Z,6.5
2022-12-25T07:40:48.454Z,6.5
2022-12-25T08:00:50.252Z,6.2
2022-12-25T08:10:50.700Z,6.4
2022-12-25T08:20:51.385Z,6.6
2022-12-25T08:30:52.458Z,6.8
2022-12-25T08:40:52.859Z,6.8
2022-12-25T08:50:53.637Z,6.7
2022-12-25T09:00:54.370Z,6.8
2022-12-25T09:10:54.601Z,6.9
2022-12-25T09:20:55.455Z,6.9
2022-12-25T09:30:55.740Z,6.9
2022-12-25T09:40:56.536Z,7
2022-12-25T09:50:57.489Z,7.1
2022-12-25T10:00:58.010Z,7.3
2022-12-25T10:10:58.251Z,7.3
2022-12-25T10:20:59.184Z,7.4
2022-12-25T11:01:01.131Z,8
2022-12-25T11:11:02.224Z,8
2022-12-25T11:21:03.190Z,8.1
2022-12-25T11:31:03.842Z,8.2
2022-12-25T11:41:04.555Z,8.2
2022-12-25T12:11:05.478Z,8.4
2022-12-25T12:21:06.518Z,8.5
2022-12-25T12:31:06.915Z,8.5
2022-12-25T13:01:09.381Z,8.6
2022-12-25T13:11:10.439Z,8.6
2022-12-25T13:21:10.908Z,8.7
2022-12-25T13:31:11.361Z,8.7
2022-12-25T13:41:12.157Z,8.7
2022-12-25T13:51:12.665Z,8.7
2022-12-25T14:01:12.839Z,8.7
2022-12-25T14:11:13.530Z,8.8
2022-12-25T14:21:13.848Z,8.7
2022-12-25T14:31:14.091Z,8.7
2022-12-25T14:41:14.208Z,8.7
2022-12-25T14:51:15.277Z,8.7
2022-12-25T15:01:15.852Z,8.7
2022-12-25T15:11:16.156Z,8.6
2022-12-25T15:21:16.414Z,8.6
2022-12-25T15:31:16.640Z,8.6
2022-12-25T15:41:22.715Z,8.6
2022-12-25T16:01:19.142Z,8.6
2022-12-25T16:11:19.177Z,8.6
2022-12-25T16:21:19.581Z,8.6
2022-12-25T16:41:20.193Z,8.6
2022-12-25T16:51:20.785Z,8.7
2022-12-25T17:01:21.836Z,8.7
2022-12-25T17:11:22.295Z,8.6
2022-12-25T17:21:23.127Z,8.6
2022-12-25T17:31:23.585Z,8.6
2022-12-25T17:41:23.731Z,8.7
2022-12-25T17:51:23.885Z,8.7
2022-12-25T18:01:25.064Z,8.6
2022-12-25T18:11:25.974Z,8.6
2022-12-25T18:31:27.080Z,8.7
2022-12-25T18:51:33.051Z,8.9
2022-12-25T19:01:27.997Z,9
2022-12-25T19:21:29.738Z,9.5
2022-12-25T19:31:30.386Z,9.8
2022-12-25T19:41:30.687Z,10.2
2022-12-25T19:51:30.940Z,10.3
2022-12-25T20:01:31.582Z,10.3
2022-12-25T20:11:32.003Z,10.4
2022-12-25T20:21:32.884Z,10.4
2022-12-25T20:31:33.175Z,10.5
2022-12-25T20:41:34.059Z,10.5
2022-12-25T20:51:34.699Z,10.4
2022-12-25T21:01:35.395Z,10.5
2022-12-25T21:11:36.169Z,10.5
2022-12-25T21:21:37.160Z,10.6
2022-12-25T21:31:37.828Z,10.5
2022-12-25T21:41:38.511Z,10.6
2022-12-25T21:51:39.601Z,10.6
2022-12-25T22:01:40.234Z,10.6
2022-12-25T22:11:40.360Z,10.6
2022-12-25T22:21:41.077Z,10.6
2022-12-25T22:41:41.586Z,10.5
2022-12-25T22:51:42.122Z,10.5
2022-12-25T23:01:42.802Z,10.5
2022-12-25T23:11:43.500Z,10.5
2022-12-25T23:21:44.178Z,10.5
2022-12-25T23:41:45.188Z,10.5
2022-12-25T23:51:45.336Z,10.4
